createdAt,value
2023-01-02T00:02:21.633Z,8.21
2023-01-02T00:05:03.156Z,8.24
2023-01-02T00:07:53.268Z,8.19
2023-01-02T00:10:35.671Z,7.97
2023-01-02T00:13:24.137Z,8.06
2023-01-02T00:16:06.559Z,8.11
2023-01-02T00:18:55.237Z,8.17
2023-01-02T00:21:44.206Z,8.43
2023-01-02T00:24:33.196Z,8.29
2023-01-02T00:27:22.428Z,8.30
2023-01-02T00:30:04.932Z,8.07
2023-01-02T00:32:54.243Z,7.89
2023-01-02T00:35:46.581Z,8.03
2023-01-02T00:38:29.297Z,8.21
2023-01-02T00:41:11.786Z,8.05
2023-01-02T00:44:00.195Z,8.02
2023-01-02T00:46:55.155Z,8.22
2023-01-02T00:49:44.305Z,8.03
2023-01-02T00:52:26.557Z,7.84
2023-01-02T00:55:15.295Z,7.81
2023-01-02T00:57:57.505Z,7.99
2023-01-02T01:00:46.320Z,8.06
2023-01-02T01:03:28.742Z,8.08
2023-01-02T01:06:18.249Z,8.04
2023-01-02T01:09:07.484Z,8.09
2023-01-02T01:11:55.514Z,8.10
2023-01-02T01:14:38.216Z,7.94
2023-01-02T01:17:27.492Z,8.07
2023-01-02T01:20:09.280Z,8.06
2023-01-02T01:22:58.228Z,8.16
2023-01-02T01:25:47.204Z,8.15
2023-01-02T01:28:36.107Z,7.94
2023-01-02T01:31:21.628Z,8.04
2023-01-02T01:34:10.345Z,7.99
2023-01-02T01:36:52.459Z,8.13
2023-01-02T01:39:41.313Z,8.14
2023-01-02T01:42:24.583Z,8.01
2023-01-02T01:45:22.609Z,7.84
2023-01-02T01:48:08.558Z,8.12
2023-01-02T01:50:57.272Z,8.22
2023-01-02T01:53:40.491Z,8.07
2023-01-02T01:56:29.090Z,8.19
2023-01-02T01:59:18.191Z,8.10
2023-01-02T02:02:06.720Z,7.74
2023-01-02T02:04:52.109Z,7.72
2023-01-02T02:07:50.085Z,7.96
2023-01-02T02:10:38.480Z,8.35
2023-01-02T02:13:21.140Z,8.29
2023-01-02T02:16:38.463Z,8.32
2023-01-02T02:19:45.117Z,8.03
2023-01-02T02:23:09.171Z,7.85
2023-01-02T02:26:36.084Z,7.67
2023-01-02T02:30:03.213Z,7.76
2023-01-02T02:33:28.156Z,7.61
2023-01-02T02:36:38.205Z,7.68
2023-01-02T02:39:32.515Z,7.48
2023-01-02T02:42:50.068Z,7.44
2023-01-02T02:45:50.478Z,7.22
2023-01-02T02:48:59.121Z,7.01
2023-01-02T02:52:11.262Z,6.99
2023-01-02T02:55:09.121Z,7.05
2023-01-02T02:58:00.245Z,7.10
2023-01-02T03:00:42.439Z,6.90
2023-01-02T03:03:37.222Z,6.94
2023-01-02T03:06:26.256Z,6.94
2023-01-02T03:09:25.496Z,7.04
2023-01-02T03:12:28.212Z,7.09
2023-01-02T03:15:37.529Z,7.16
2023-01-02T03:18:42.176Z,7.23
2023-01-02T03:22:00.078Z,7.06
2023-01-02T03:24:52.082Z,7.08
2023-01-02T03:27:42.514Z,7.09
2023-01-02T03:30:31.321Z,7.01
2023-01-02T03:33:26.100Z,7.05
2023-01-02T03:36:22.484Z,7.46
2023-01-02T03:39:17.269Z,7.22
2023-01-02T03:42:01.211Z,7.36
2023-01-02T03:44:57.250Z,7.45
2023-01-02T03:48:04.058Z,7.65
2023-01-02T03:51:01.164Z,7.73
2023-01-02T03:53:53.171Z,7.34
2023-01-02T03:57:01.208Z,7.41
2023-01-02T04:00:13.113Z,7.49
2023-01-02T04:03:06.301Z,7.59
2023-01-02T04:06:13.158Z,7.80
2023-01-02T04:09:17.534Z,7.70
2023-01-02T04:12:09.201Z,8.06
2023-01-02T04:15:11.503Z,8.15
2023-01-02T04:18:20.115Z,8.44
2023-01-02T04:21:10.641Z,8.28
2023-01-02T04:24:09.058Z,8.24
2023-01-02T04:27:21.472Z,8.44
2023-01-02T04:30:05.192Z,8.26
2023-01-02T04:32:55.467Z,8.39
2023-01-02T04:35:38.304Z,8.58
2023-01-02T04:38:20.298Z,8.49
2023-01-02T04:41:09.074Z,8.31
2023-01-02T04:43:58.096Z,8.24
2023-01-02T04:46:40.448Z,8.56
2023-01-02T04:49:35.139Z,8.85
2023-01-02T04:52:24.225Z,8.63
2023-01-02T04:55:07.336Z,8.68
2023-01-02T04:57:56.192Z,8.88
2023-01-02T05:00:38.683Z,8.97
2023-01-02T05:03:27.295Z,8.99
2023-01-02T05:06:09.523Z,9.19
2023-01-02T05:08:58.209Z,9.14
2023-01-02T05:11:40.446Z,9.15
2023-01-02T05:14:29.240Z,9.16
2023-01-02T05:17:11.513Z,9.18
2023-01-02T05:20:00.249Z,9.38
2023-01-02T05:23:07.141Z,9.49
2023-01-02T05:25:49.517Z,9.54
2023-01-02T05:28:38.824Z,9.37
2023-01-02T05:31:22.808Z,9.21
2023-01-02T05:34:13.230Z,9.06
2023-01-02T05:37:02.054Z,9.37
2023-01-02T05:39:51.277Z,9.30
2023-01-02T05:42:39.499Z,9.41
2023-01-02T05:45:22.196Z,9.28
2023-01-02T05:48:10.433Z,9.48
2023-01-02T05:50:52.232Z,9.63
2023-01-02T05:53:41.186Z,9.82
2023-01-02T05:56:25.454Z,9.75
2023-01-02T05:59:16.192Z,9.74
2023-01-02T06:01:58.616Z,9.70
2023-01-02T06:04:47.161Z,9.33
2023-01-02T06:07:29.411Z,9.55
2023-01-02T06:10:18.221Z,9.75
2023-01-02T06:13:00.505Z,9.55
2023-01-02T06:15:49.317Z,9.77
2023-01-02T06:18:32.522Z,10.04
2023-01-02T06:21:22.194Z,10.42
2023-01-02T06:24:05.454Z,10.47
2023-01-02T06:26:54.107Z,10.80
2023-01-02T06:29:44.175Z,10.98
2023-01-02T06:32:33.169Z,11.13
2023-01-02T06:35:15.437Z,11.11
2023-01-02T06:38:04.173Z,11.22
2023-01-02T06:40:46.439Z,11.28
2023-01-02T06:43:36.210Z,11.40
2023-01-02T06:46:20.469Z,11.60
2023-01-02T06:49:09.115Z,11.59
2023-01-02T06:51:58.124Z,12.21
2023-01-02T06:54:47.167Z,12.56
2023-01-02T06:57:36.098Z,12.74
2023-01-02T07:00:26.267Z,12.94
2023-01-02T07:03:08.416Z,12.96
2023-01-02T07:05:57.225Z,13.40
2023-01-02T07:08:40.522Z,13.77
2023-01-02T07:11:32.229Z,13.55
2023-01-02T07:14:14.482Z,13.60
2023-01-02T07:17:03.249Z,13.64
2023-01-02T07:19:51.453Z,13.78
2023-01-02T07:22:42.161Z,14.08
2023-01-02T07:25:24.505Z,14.15
2023-01-02T07:28:13.204Z,14.23
2023-01-02T07:30:55.501Z,14.38
2023-01-02T07:33:44.237Z,14.64
2023-01-02T07:36:27.559Z,14.49
2023-01-02T07:39:17.556Z,14.57
2023-01-02T07:41:59.544Z,14.73
2023-01-02T07:44:48.228Z,14.85
2023-01-02T07:47:30.429Z,15.10
2023-01-02T07:50:25.438Z,15.19
2023-01-02T07:53:13.505Z,15.42
2023-01-02T07:56:02.130Z,15.29
2023-01-02T07:58:51.286Z,15.54
2023-01-02T08:01:33.478Z,15.61
2023-01-02T08:04:22.323Z,15.70
2023-01-02T08:07:04.444Z,15.78
2023-01-02T08:09:53.118Z,15.76
2023-01-02T08:12:36.475Z,15.86
2023-01-02T08:15:25.512Z,15.97
2023-01-02T08:18:14.156Z,15.64
2023-01-02T08:21:04.523Z,16.23
2023-01-02T08:23:47.255Z,16.09
2023-01-02T08:26:35.449Z,15.77
2023-01-02T08:29:18.230Z,15.66
2023-01-02T08:32:07.494Z,16.03
2023-01-02T08:34:49.177Z,15.98
2023-01-02T08:37:31.334Z,15.79
2023-01-02T08:40:21.005Z,15.74
2023-01-02T08:43:03.310Z,15.97
2023-01-02T08:45:52.165Z,16.02
2023-01-02T08:48:48.077Z,16.05
2023-01-02T08:51:37.015Z,15.64
2023-01-02T08:54:26.122Z,15.47
2023-01-02T08:57:14.443Z,15.71
2023-01-02T08:59:57.209Z,15.73
2023-01-02T09:02:46.666Z,15.43
2023-01-02T09:05:30.183Z,15.28
2023-01-02T09:08:18.580Z,15.53
2023-01-02T09:11:01.162Z,15.44
2023-01-02T09:13:43.552Z,15.20
2023-01-02T09:16:32.088Z,15.22
2023-01-02T09:19:21.032Z,15.35
2023-01-02T09:22:10.279Z,15.49
2023-01-02T09:24:58.464Z,15.38
2023-01-02T09:27:41.203Z,15.31
2023-01-02T09:30:29.442Z,15.40
2023-01-02T09:33:12.127Z,15.51
2023-01-02T09:36:00.384Z,15.49
2023-01-02T09:38:43.222Z,15.40
2023-01-02T09:42:02.789Z,15.55
2023-01-02T09:45:12.083Z,15.70
2023-01-02T09:48:16.984Z,15.71
2023-01-02T09:51:07.956Z,15.73
2023-01-02T09:53:50.460Z,15.77
2023-01-02T09:56:45.204Z,15.76
2023-01-02T09:59:40.509Z,15.78
2023-01-02T10:02:53.275Z,15.83
2023-01-02T10:05:56.396Z,15.81
2023-01-02T10:09:15.010Z,15.73
2023-01-02T10:12:18.534Z,15.79
2023-01-02T10:15:12.088Z,15.72
2023-01-02T10:17:59.413Z,15.71
2023-01-02T10:20:53.163Z,15.72
2023-01-02T10:23:45.429Z,15.68
2023-01-02T10:26:40.180Z,15.66
2023-01-02T10:29:47.370Z,15.66
2023-01-02T10:32:38.275Z,15.71
2023-01-02T10:35:30.375Z,15.54
2023-01-02T10:38:22.050Z,15.54
2023-01-02T10:41:04.460Z,15.38
2023-01-02T10:44:01.276Z,15.15
2023-01-02T10:46:45.516Z,15.19
2023-01-02T10:49:35.556Z,15.08
2023-01-02T10:52:38.429Z,14.88
2023-01-02T10:55:39.182Z,14.90
2023-01-02T10:58:32.422Z,14.98
2023-01-02T11:01:27.345Z,14.80
2023-01-02T11:04:10.851Z,14.72
2023-01-02T11:07:10.096Z,14.84
2023-01-02T11:10:03.443Z,15.00
2023-01-02T11:12:56.213Z,14.98
2023-01-02T11:15:39.385Z,14.71
2023-01-02T11:18:35.213Z,14.57
2023-01-02T11:21:18.431Z,14.50
2023-01-02T11:24:23.237Z,14.53
2023-01-02T11:27:10.401Z,14.77
2023-01-02T11:29:59.225Z,14.76
2023-01-02T11:32:47.479Z,14.83
2023-01-02T11:35:54.089Z,14.73
2023-01-02T11:38:48.451Z,14.45
2023-01-02T11:42:05.090Z,14.47
2023-01-02T11:45:15.434Z,14.15
2023-01-02T11:48:12.139Z,14.08
2023-01-02T11:51:01.462Z,13.93
2023-01-02T11:53:49.497Z,13.88
2023-01-02T11:56:37.657Z,13.74
2023-01-02T11:59:31.172Z,13.38
2023-01-02T12:02:22.341Z,13.34
2023-01-02T12:05:11.143Z,13.04
2023-01-02T12:08:10.529Z,12.93
2023-01-02T12:11:18.144Z,12.89
2023-01-02T12:14:31.469Z,12.80
2023-01-02T12:17:36.236Z,12.69
2023-01-02T12:20:51.401Z,12.48
2023-01-02T12:23:55.143Z,12.53
2023-01-02T12:26:50.040Z,12.33
2023-01-02T12:30:10.330Z,12.11
2023-01-02T12:33:13.341Z,11.94
2023-01-02T12:36:34.991Z,11.73
2023-01-02T12:39:58.347Z,11.56
2023-01-02T12:43:17.040Z,11.78
2023-01-02T12:46:34.433Z,11.70
2023-01-02T12:49:41.187Z,11.42
2023-01-02T12:52:44.477Z,11.18
2023-01-02T12:55:48.194Z,11.31
2023-01-02T12:58:57.463Z,11.43
2023-01-02T13:02:23.165Z,11.25
2023-01-02T13:05:25.013Z,10.89
2023-01-02T13:08:14.365Z,10.79
2023-01-02T13:11:08.980Z,10.68
2023-01-02T13:13:51.431Z,10.69
2023-01-02T13:16:40.183Z,10.66
2023-01-02T13:19:59.343Z,10.65
2023-01-02T13:22:55.371Z,10.31
2023-01-02T13:25:47.136Z,10.38
2023-01-02T13:28:29.351Z,10.16
2023-01-02T13:31:45.341Z,9.98
2023-01-02T13:34:25.140Z,10.00
2023-01-02T13:37:17.025Z,9.94
2023-01-02T13:40:12.140Z,9.98
2023-01-02T13:43:00.148Z,9.85
2023-01-02T13:45:57.143Z,9.84
2023-01-02T13:49:00.940Z,10.20
2023-01-02T13:51:50.029Z,10.28
2023-01-02T13:54:51.151Z,10.03
2023-01-02T13:57:41.106Z,9.89
2023-01-02T14:00:23.442Z,10.01
2023-01-02T14:03:32.141Z,9.78
2023-01-02T14:06:41.373Z,9.65
2023-01-02T14:09:32.009Z,9.78
2023-01-02T14:12:21.432Z,10.01
2023-01-02T14:15:11.107Z,10.05
2023-01-02T14:18:13.445Z,9.91
2023-01-02T14:21:04.127Z,9.84
2023-01-02T14:24:17.147Z,9.73
2023-01-02T14:27:14.112Z,9.53
2023-01-02T14:30:09.768Z,9.48
2023-01-02T14:33:01.400Z,9.75
2023-01-02T14:35:46.035Z,9.87
2023-01-02T14:38:45.401Z,9.87
2023-01-02T14:42:17.011Z,9.82
2023-01-02T14:45:12.514Z,9.72
2023-01-02T14:48:02.155Z,9.69
2023-01-02T14:50:54.442Z,9.60
2023-01-02T14:53:42.150Z,9.59
2023-01-02T14:56:49.098Z,9.43
2023-01-02T14:59:51.167Z,9.70
2023-01-02T15:02:46.624Z,9.39
2023-01-02T15:05:44.068Z,9.43
2023-01-02T15:08:44.066Z,9.75
2023-01-02T15:11:45.985Z,9.83
2023-01-02T15:14:35.028Z,9.86
2023-01-02T15:17:29.417Z,9.70
2023-01-02T15:20:12.019Z,9.59
2023-01-02T15:23:09.136Z,9.76
2023-01-02T15:26:33.300Z,9.76
2023-01-02T15:29:14.766Z,9.46
2023-01-02T15:32:07.058Z,9.24
2023-01-02T15:34:52.063Z,9.26
2023-01-02T15:37:40.971Z,9.23
2023-01-02T15:40:35.371Z,8.94
2023-01-02T15:43:42.984Z,8.81
2023-01-02T15:46:33.106Z,8.80
2023-01-02T15:49:29.944Z,9.01
2023-01-02T15:52:33.022Z,9.02
2023-01-02T15:55:26.561Z,9.18
2023-01-02T15:58:43.063Z,9.12
2023-01-02T16:01:27.693Z,8.85
2023-01-02T16:04:40.076Z,8.81
2023-01-02T16:07:30.578Z,8.66
2023-01-02T16:10:27.088Z,8.65
2023-01-02T16:13:31.731Z,8.58
2023-01-02T16:16:22.154Z,8.60
2023-01-02T16:19:09.414Z,8.52
2023-01-02T16:22:08.157Z,8.39
2023-01-02T16:25:29.181Z,8.32
2023-01-02T16:28:35.034Z,8.28
2023-01-02T16:31:25.542Z,8.27
2023-01-02T16:34:33.128Z,8.34
2023-01-02T16:37:24.429Z,8.34
2023-01-02T16:41:01.104Z,8.33
2023-01-02T16:43:44.094Z,8.40
2023-01-02T16:46:33.028Z,8.37
2023-01-02T16:49:31.347Z,8.45
2023-01-02T16:52:14.083Z,8.53
2023-01-02T16:55:02.306Z,8.48
2023-01-02T16:57:44.148Z,8.40
2023-01-02T17:00:36.980Z,8.41
2023-01-02T17:03:38.044Z,8.35
2023-01-02T17:06:27.991Z,8.23
2023-01-02T17:09:10.597Z,8.20
2023-01-02T17:12:08.077Z,8.01
2023-01-02T17:14:50.320Z,7.86
2023-01-02T17:17:38.933Z,7.79
2023-01-02T17:20:29.060Z,7.68
2023-01-02T17:23:11.580Z,7.76
2023-01-02T17:26:01.061Z,7.63
2023-01-02T17:28:43.337Z,7.63
2023-01-02T17:31:31.979Z,7.60
2023-01-02T17:34:21.207Z,7.67
2023-01-02T17:37:03.589Z,7.67
2023-01-02T17:39:54.155Z,7.60
2023-01-02T17:42:36.609Z,7.55
2023-01-02T17:45:25.007Z,7.59
2023-01-02T17:48:31.134Z,7.59
2023-01-02T17:51:20.349Z,7.89
2023-01-02T17:54:03.993Z,7.68
2023-01-02T17:56:53.457Z,7.77
2023-01-02T17:59:36.132Z,7.81
2023-01-02T18:02:26.678Z,8.01
2023-01-02T18:05:10.010Z,7.88
2023-01-02T18:07:59.091Z,7.92
2023-01-02T18:10:47.043Z,7.86
2023-01-02T18:13:36.132Z,7.78
2023-01-02T18:16:22.274Z,8.07
2023-01-02T18:19:13.121Z,7.91
2023-01-02T18:21:56.527Z,8.01
2023-01-02T18:24:45.076Z,8.21
2023-01-02T18:27:36.908Z,8.24
2023-01-02T18:30:29.147Z,8.21
2023-01-02T18:33:27.105Z,8.15
2023-01-02T18:36:28.091Z,7.83
2023-01-02T18:39:31.999Z,8.04
2023-01-02T18:42:22.015Z,7.41
2023-01-02T18:45:07.378Z,7.80
2023-01-02T18:48:05.127Z,7.86
2023-01-02T18:51:12.041Z,7.99
2023-01-02T18:54:02.491Z,7.62
2023-01-02T18:56:45.967Z,7.47
2023-01-02T18:59:46.073Z,7.55
2023-01-02T19:02:54.896Z,7.72
2023-01-02T19:05:47.043Z,7.63
2023-01-02T19:08:38.826Z,7.55
2023-01-02T19:12:02.026Z,7.90
2023-01-02T19:14:52.043Z,7.74
2023-01-02T19:17:44.911Z,7.74
2023-01-02T19:20:34.389Z,7.71
2023-01-02T19:23:39.052Z,7.64
2023-01-02T19:26:42.330Z,7.81
2023-01-02T19:29:46.027Z,7.55
2023-01-02T19:32:37.969Z,7.66
2023-01-02T19:35:44.273Z,7.77
2023-01-02T19:38:37.947Z,7.64
2023-01-02T19:41:40.206Z,7.88
2023-01-02T19:44:28.965Z,7.58
2023-01-02T19:47:11.388Z,7.31
2023-01-02T19:50:06.949Z,7.52
2023-01-02T19:52:56.012Z,7.42
2023-01-02T19:55:38.373Z,7.32
2023-01-02T19:58:27.110Z,7.52
2023-01-02T20:01:09.384Z,7.81
2023-01-02T20:03:58.078Z,7.41
2023-01-02T20:06:40.294Z,7.34
2023-01-02T20:09:32.935Z,7.42
2023-01-02T20:12:39.911Z,7.13
2023-01-02T20:15:31.420Z,7.21
2023-01-02T20:18:14.005Z,7.09
2023-01-02T20:21:02.360Z,7.29
2023-01-02T20:23:44.944Z,7.21
2023-01-02T20:26:33.366Z,7.09
2023-01-02T20:29:15.998Z,7.27
2023-01-02T20:32:05.500Z,7.38
2023-01-02T20:34:47.945Z,6.90
2023-01-02T20:37:36.388Z,6.87
2023-01-02T20:40:20.049Z,6.90
2023-01-02T20:43:01.818Z,6.86
2023-01-02T20:45:51.021Z,6.91
2023-01-02T20:48:40.351Z,6.99
2023-01-02T20:51:38.002Z,7.03
2023-01-02T20:54:27.416Z,6.99
2023-01-02T20:57:10.089Z,7.00
2023-01-02T20:59:58.966Z,6.81
2023-01-02T21:02:48.139Z,6.72
2023-01-02T21:05:36.988Z,6.93
2023-01-02T21:08:25.937Z,7.01
2023-01-02T21:11:08.729Z,7.08
2023-01-02T21:13:58.285Z,6.70
2023-01-02T21:16:40.320Z,6.71
2023-01-02T21:19:28.992Z,6.76
2023-01-02T21:22:18.349Z,6.86
2023-01-02T21:25:00.137Z,6.80
2023-01-02T21:27:48.333Z,6.66
2023-01-02T21:30:30.996Z,6.80
2023-01-02T21:33:22.367Z,6.46
2023-01-02T21:36:08.614Z,6.42
2023-01-02T21:38:58.289Z,6.39
2023-01-02T21:41:59.003Z,6.35
2023-01-02T21:44:41.347Z,6.25
2023-01-02T21:47:31.970Z,6.33
2023-01-02T21:50:21.084Z,6.47
2023-01-02T21:53:10.020Z,6.65
2023-01-02T21:55:52.178Z,6.49
2023-01-02T21:58:41.063Z,6.43
2023-01-02T22:01:30.072Z,6.36
2023-01-02T22:04:12.376Z,6.63
2023-01-02T22:10:03.406Z,6.04
2023-01-02T22:12:52.077Z,6.01
2023-01-02T22:15:34.413Z,6.01
2023-01-02T22:18:22.901Z,6.06
2023-01-02T22:21:05.239Z,6.06
2023-01-02T22:23:54.399Z,5.93
2023-01-02T22:26:37.275Z,5.95
2023-01-02T22:30:00.345Z,6.04
2023-01-02T22:32:40.979Z,6.01
2023-01-02T22:35:31.350Z,5.95
2023-01-02T22:38:14.054Z,5.77
2023-01-02T22:40:57.220Z,5.67
2023-01-02T22:43:51.052Z,6.13
2023-01-02T22:46:41.799Z,5.89
2023-01-02T22:49:34.996Z,6.02
2023-01-02T22:52:24.327Z,5.95
2023-01-02T22:55:07.030Z,5.81
2023-01-02T22:57:56.313Z,6.00
2023-01-02T23:00:39.049Z,6.10
2023-01-02T23:03:28.258Z,6.02
2023-01-02T23:06:10.921Z,6.06
2023-01-02T23:09:01.328Z,5.82
2023-01-02T23:11:43.965Z,5.85
2023-01-02T23:14:32.359Z,5.88
2023-01-02T23:17:32.956Z,5.73
2023-01-02T23:20:15.296Z,5.72
2023-01-02T23:23:05.013Z,5.69
2023-01-02T23:25:47.646Z,5.75
2023-01-02T23:29:06.012Z,5.58
2023-01-02T23:31:48.245Z,5.81
2023-01-02T23:34:33.912Z,5.82
2023-01-02T23:37:22.352Z,5.79
2023-01-02T23:40:04.970Z,6.11
2023-01-02T23:42:54.002Z,6.11
2023-01-02T23:45:36.513Z,5.81
2023-01-02T23:48:25.966Z,5.86
2023-01-02T23:51:20.784Z,5.79
2023-01-02T23:54:10.006Z,5.81
2023-01-02T23:56:55.290Z,5.95
2023-01-02T23:59:43.988Z,5.73
